Time;durP1;ratioP1;P1;durP2;ratioP2;P2;SDS_P1;SDS_P2;PMS_P1;PMS_P2;Temp;Humidity;BMP_temperature;BMP_pressure;BME280_temperature;BME280_humidity;BME280_pressure;Samples;Min_cycle;Max_cycle;Signal;HPM_P1;HPM_P2
2022/05/19 00:02:14;;;;;;;2.38;0.70;;;;;;;5.65;87.97;98072.47;5007598;28;20089;-59
2022/05/19 00:04:41;;;;;;;2.40;0.65;;;;;;;5.67;88.00;98067.47;5007256;28;20065;-59
2022/05/19 00:07:09;;;;;;;2.35;0.63;;;;;;;5.55;88.69;98070.78;4989997;28;20050;-60
2022/05/19 00:09:37;;;;;;;1.67;0.63;;;;;;;5.60;89.76;98056.09;5007283;28;20058;-59
2022/05/19 00:12:08;;;;;;;2.03;0.80;;;;;;;5.63;88.90;98049.97;4989981;28;20056;-59
2022/05/19 00:14:35;;;;;;;1.40;0.75;;;;;;;5.76;89.60;98071.91;5007324;28;20050;-59
2022/05/19 00:17:02;;;;;;;7.43;0.88;;;;;;;5.73;90.34;98071.72;5007296;28;20061;-59
2022/05/19 00:19:29;;;;;;;1.33;0.60;;;;;;;5.69;90.19;98070.75;5007007;28;20058;-59
2022/05/19 00:21:56;;;;;;;4.78;0.70;;;;;;;5.62;91.18;98076.69;5006681;28;20068;-59
2022/05/19 00:24:22;;;;;;;1.70;1.08;;;;;;;5.47;91.33;98037.78;4989015;28;20052;-59
2022/05/19 00:26:49;;;;;;;1.88;0.75;;;;;;;5.75;90.58;98069.47;4989402;28;20049;-59
2022/05/19 00:29:16;;;;;;;2.33;0.70;;;;;;;5.62;92.28;98087.66;4989118;28;20132;-61
2022/05/19 00:31:43;;;;;;;1.02;0.50;;;;;;;5.77;90.54;98072.72;5006278;28;20064;-59
2022/05/19 00:34:09;;;;;;;3.50;0.70;;;;;;;5.51;90.40;98031.34;5006486;28;20058;-60
2022/05/19 00:36:36;;;;;;;1.48;0.80;;;;;;;5.76;88.63;98071.09;5005385;28;20054;-59
2022/05/19 00:39:04;;;;;;;1.67;0.77;;;;;;;5.77;89.27;98068.03;5006344;28;20061;-59
2022/05/19 00:41:31;;;;;;;4.72;1.02;;;;;;;5.40;89.50;98045.63;5006304;28;20066;-60
2022/05/19 00:44:05;;;;;;;1.75;0.75;;;;;;;5.03;89.60;97980.91;5007180;28;20068;-60
2022/05/19 00:47:05;;;;;;;2.30;0.60;;;;;;;5.16;90.19;97995.69;5006588;28;20057;-60
2022/05/19 00:49:38;;;;;;;2.60;0.90;;;;;;;5.64;90.57;98079.09;4973346;28;20511;-60
2022/05/19 00:52:31;;;;;;;0.80;0.55;;;;;;;5.67;90.06;98078.47;4242389;28;10020715;-60
2022/05/19 00:55:11;;;;;;;1.38;0.70;;;;;;;5.66;89.89;98071.34;3939732;28;10002586;-60
2022/05/19 00:57:43;;;;;;;3.63;0.75;;;;;;;5.65;91.50;98066.97;5006159;28;20054;-60
2022/05/19 01:00:13;;;;;;;1.58;0.65;;;;;;;5.49;90.17;98041.00;5006250;28;20058;-60
2022/05/19 01:02:47;;;;;;;1.90;0.60;;;;;;;5.75;89.15;98072.22;4988355;28;20476;-61
2022/05/19 01:05:22;;;;;;;1.27;0.60;;;;;;;5.60;89.53;98045.94;5006224;28;20054;-61
2022/05/19 01:07:57;;;;;;;6.47;0.80;;;;;;;5.60;90.84;98072.59;5006451;28;20065;-60
2022/05/19 01:10:23;;;;;;;3.17;0.63;;;;;;;5.11;91.21;97976.59;5005484;28;20050;-60
2022/05/19 01:12:53;;;;;;;0.63;0.60;;;;;;;5.65;91.00;98070.53;5005402;28;20104;-60
2022/05/19 01:15:20;;;;;;;2.08;0.60;;;;;;;5.66;90.38;98068.59;5004651;28;20065;-60
2022/05/19 01:17:48;;;;;;;3.33;0.75;;;;;;;5.40;89.75;98015.41;4988180;28;20444;-60
2022/05/19 01:20:21;;;;;;;2.47;0.63;;;;;;;5.10;88.86;97958.50;4988471;28;20050;-60
2022/05/19 01:23:00;;;;;;;1.08;0.57;;;;;;;5.79;89.56;98070.47;5006099;28;20060;-60
2022/05/19 01:25:57;;;;;;;0.55;0.50;;;;;;;5.72;89.83;98065.41;5006237;28;20073;-61
2022/05/19 01:28:25;;;;;;;2.42;0.60;;;;;;;5.61;91.18;98068.75;5005624;28;20062;-60
2022/05/19 01:30:52;;;;;;;4.72;0.90;;;;;;;5.60;91.56;98058.84;5003932;28;20535;-60
2022/05/19 01:33:19;;;;;;;3.10;0.60;;;;;;;5.45;91.99;98031.78;5004455;28;20515;-61
2022/05/19 01:35:46;;;;;;;1.95;0.55;;;;;;;4.80;90.32;97931.78;5005447;28;20340;-61
2022/05/19 01:38:18;;;;;;;1.40;0.60;;;;;;;5.26;91.16;98012.75;5005712;28;20080;-61
2022/05/19 01:41:09;;;;;;;1.15;0.60;;;;;;;5.64;90.24;98068.13;5005348;28;20050;-61
2022/05/19 01:44:30;;;;;;;1.38;0.60;;;;;;;5.49;89.19;98062.97;4983333;28;20669;-60
2022/05/19 01:47:14;;;;;;;2.65;0.60;;;;;;;4.93;91.84;98018.78;4924984;29;20055;-61
2022/05/19 01:49:49;;;;;;;2.05;0.65;;;;;;;5.47;90.43;98065.25;4985481;28;20778;-60
2022/05/19 01:52:19;;;;;;;1.42;0.60;;;;;;;5.46;91.53;98067.19;4967975;28;20065;-60
2022/05/19 01:55:04;;;;;;;1.17;0.60;;;;;;;5.47;90.53;98065.25;4968018;28;20050;-60
2022/05/19 01:58:04;;;;;;;1.45;0.60;;;;;;;5.22;92.49;98057.59;4984785;28;20453;-60
2022/05/19 02:00:31;;;;;;;0.95;0.60;;;;;;;5.30;92.02;98062.34;4982178;28;20066;-60
2022/05/19 02:03:00;;;;;;;4.43;0.73;;;;;;;5.33;91.52;98057.06;4985210;28;20049;-60
2022/05/19 02:06:01;;;;;;;3.30;0.50;;;;;;;5.32;92.55;98060.94;4984119;28;20145;-60
2022/05/19 02:08:32;;;;;;;1.13;0.60;;;;;;;5.41;92.70;98063.72;4985143;28;20398;-60
2022/05/19 02:11:02;;;;;;;3.08;0.63;;;;;;;5.42;91.65;98070.88;4985076;28;20055;-60
2022/05/19 02:13:31;;;;;;;2.35;0.68;;;;;;;5.40;92.82;98053.88;4985341;28;20556;-59
2022/05/19 02:16:03;;;;;;;1.85;0.77;;;;;;;4.81;92.05;97963.59;4985283;28;20058;-59
2022/05/19 02:18:30;;;;;;;3.38;0.52;;;;;;;5.39;91.76;98066.00;4985062;28;20046;-59
2022/05/19 02:20:59;;;;;;;2.65;0.70;;;;;;;5.18;91.33;98040.13;4988140;28;20076;-59
2022/05/19 02:23:26;;;;;;;2.67;0.70;;;;;;;5.28;93.21;98054.44;4986893;28;20053;-58
2022/05/19 02:25:53;;;;;;;3.08;0.60;;;;;;;5.29;92.87;98066.25;5005210;28;20413;-59
2022/05/19 02:28:30;;;;;;;1.73;0.65;;;;;;;5.15;91.68;98076.47;5004474;28;20050;-59
2022/05/19 02:30:58;;;;;;;1.83;0.60;;;;;;;5.06;92.70;98045.38;5004243;28;20073;-59
2022/05/19 02:33:25;;;;;;;2.33;1.08;;;;;;;5.09;93.17;98022.78;5002705;28;20054;-59
2022/05/19 02:35:52;;;;;;;3.80;0.80;;;;;;;5.37;91.46;98069.06;5003153;28;20445;-59
2022/05/19 02:38:21;;;;;;;1.88;1.00;;;;;;;5.29;93.10;98055.25;5004433;28;20436;-59
2022/05/19 02:40:48;;;;;;;4.65;1.27;;;;;;;5.03;92.04;98019.34;5003131;28;20054;-60
2022/05/19 02:43:16;;;;;;;3.55;1.60;;;;;;;5.02;91.42;98028.72;5004426;28;20042;-59
2022/05/19 02:45:44;;;;;;;5.28;1.60;;;;;;;5.10;94.16;98040.88;4986731;28;20054;-60
2022/05/19 02:48:12;;;;;;;6.22;1.48;;;;;;;4.95;93.21;98008.31;4986687;28;20560;-59
2022/05/19 02:50:40;;;;;;;2.88;1.15;;;;;;;5.04;91.60;98042.13;4986339;28;20407;-60
2022/05/19 02:53:07;;;;;;;2.70;1.35;;;;;;;5.20;90.79;98068.09;5004369;28;20050;-59
2022/05/19 02:55:34;;;;;;;1.77;0.90;;;;;;;4.42;93.25;97948.59;5003787;28;20107;-60
2022/05/19 02:58:00;;;;;;;1.73;0.93;;;;;;;5.34;91.65;98074.38;5004137;28;20054;-59
2022/05/19 03:00:27;;;;;;;5.40;1.10;;;;;;;5.31;91.55;98080.47;5003856;28;20049;-60
2022/05/19 03:02:57;;;;;;;1.95;1.00;;;;;;;5.37;93.01;98073.75;5003817;28;20054;-60
2022/05/19 03:05:28;;;;;;;3.90;1.15;;;;;;;5.27;92.49;98057.47;5002377;28;20104;-60
2022/05/19 03:08:02;;;;;;;4.05;1.05;;;;;;;3.25;90.50;97720.50;4987986;28;20264;-60
2022/05/19 03:10:29;;;;;;;3.45;0.90;;;;;;;5.58;90.90;98096.84;5003804;28;20065;-60
2022/05/19 03:12:56;;;;;;;2.55;1.10;;;;;;;5.38;91.40;98119.31;5003983;28;20046;-59
2022/05/19 03:15:24;;;;;;;3.00;1.08;;;;;;;5.44;93.14;98096.06;5003870;28;20073;-59
2022/05/19 03:17:51;;;;;;;8.23;0.98;;;;;;;5.35;93.79;98065.81;5002576;28;20069;-60
2022/05/19 03:20:18;;;;;;;1.55;0.63;;;;;;;4.75;92.01;97990.38;5004008;28;20069;-59
2022/05/19 03:22:44;;;;;;;3.65;1.38;;;;;;;4.59;97.77;98107.06;4986852;28;20476;-59
2022/05/19 03:25:12;;;;;;;6.30;1.50;;;;;;;4.51;97.65;98053.72;4984206;28;20066;-60
2022/05/19 03:27:38;;;;;;;5.72;1.20;;;;;;;4.85;97.07;98077.16;4984664;28;20062;-60
2022/05/19 03:30:13;;;;;;;2.13;1.15;;;;;;;4.41;97.78;98092.31;4966927;28;20081;-59
2022/05/19 03:32:41;;;;;;;4.70;1.58;;;;;;;4.41;98.11;98106.03;4982247;28;20058;-60
2022/05/19 03:35:08;;;;;;;3.28;1.50;;;;;;;4.55;100.00;98095.88;4986409;28;20051;-59
2022/05/19 03:37:35;;;;;;;6.07;1.17;;;;;;;4.73;98.19;98068.66;4970375;28;20057;-60
2022/05/19 03:40:03;;;;;;;4.55;1.15;;;;;;;4.85;95.57;98066.16;4986658;28;20062;-59
2022/05/19 03:42:30;;;;;;;3.20;0.93;;;;;;;5.35;95.95;98090.53;4987868;28;20065;-60
2022/05/19 03:44:57;;;;;;;4.43;1.00;;;;;;;5.13;94.79;98059.47;4970708;28;20477;-60
2022/05/19 03:47:23;;;;;;;6.75;1.73;;;;;;;5.71;92.64;98113.28;4986289;28;20242;-60
2022/05/19 03:49:50;;;;;;;5.15;1.13;;;;;;;4.72;93.81;98006.63;4988315;28;20062;-60
2022/05/19 03:52:17;;;;;;;2.88;1.20;;;;;;;5.47;94.25;98089.97;4986325;28;20050;-60
2022/05/19 03:54:44;;;;;;;3.30;1.05;;;;;;;5.79;92.48;98081.47;4969926;28;20065;-60
2022/05/19 03:57:13;;;;;;;4.47;1.30;;;;;;;6.10;90.37;98112.59;4987628;28;20076;-61
2022/05/19 03:59:40;;;;;;;5.72;1.58;;;;;;;6.07;91.20;98071.94;4987665;28;20058;-60
2022/05/19 04:02:07;;;;;;;6.60;2.22;;;;;;;6.45;89.41;98084.09;4987865;28;20058;-61
2022/05/19 04:04:54;;;;;;;8.13;2.58;;;;;;;6.62;89.41;98100.69;4972798;28;20598;-61
2022/05/19 04:07:20;;;;;;;10.15;2.40;;;;;;;6.87;87.24;98113.72;4987443;28;20073;-61
2022/05/19 04:09:47;;;;;;;7.03;2.10;;;;;;;7.05;85.90;98103.53;4969833;28;20529;-60
2022/05/19 04:12:19;;;;;;;4.70;1.67;;;;;;;7.27;85.28;98095.94;4969695;28;20065;-61
2022/05/19 04:14:46;;;;;;;3.40;1.27;;;;;;;7.29;84.45;98104.69;4987471;28;20054;-61
2022/05/19 04:17:13;;;;;;;4.32;1.45;;;;;;;7.34;83.71;98101.78;4987441;28;20085;-60
2022/05/19 04:19:39;;;;;;;4.97;1.55;;;;;;;7.01;83.63;97995.94;4987324;28;20053;-60
2022/05/19 04:22:06;;;;;;;7.15;1.80;;;;;;;7.79;82.61;98112.47;4991125;28;20069;-60
2022/05/19 04:24:33;;;;;;;4.25;1.67;;;;;;;8.03;80.23;98190.03;4987477;28;20058;-60
2022/05/19 04:27:02;;;;;;;5.65;1.85;;;;;;;7.80;81.18;98053.41;4969702;28;20058;-59
2022/05/19 04:29:29;;;;;;;7.75;2.55;;;;;;;7.85;82.06;98078.06;4987055;28;20058;-60
2022/05/19 04:31:56;;;;;;;4.60;2.13;;;;;;;7.16;79.31;97921.03;4985618;28;20060;-60
2022/05/19 04:34:22;;;;;;;7.70;2.83;;;;;;;8.11;79.20;98051.22;4969764;28;20062;-60
2022/05/19 04:36:49;;;;;;;3.53;2.03;;;;;;;8.52;79.81;98103.88;4969163;28;20058;-60
2022/05/19 04:39:16;;;;;;;6.40;1.83;;;;;;;8.63;77.87;98116.19;4987189;28;20483;-60
2022/05/19 04:41:42;;;;;;;5.03;1.90;;;;;;;8.69;78.58;98081.69;4987062;28;20069;-60
2022/05/19 04:44:09;;;;;;;5.68;2.50;;;;;;;8.46;79.11;98005.78;4969153;28;20058;-60
2022/05/19 04:46:36;;;;;;;3.53;2.17;;;;;;;8.94;77.27;98105.63;4985258;28;20050;-60
2022/05/19 04:49:03;;;;;;;4.80;1.83;;;;;;;8.57;76.88;98045.69;4996152;28;20058;-60
2022/05/19 04:51:30;;;;;;;3.15;1.23;;;;;;;8.42;78.06;97971.72;5020770;28;20053;-60
2022/05/19 04:53:57;;;;;;;3.42;1.38;;;;;;;9.17;78.50;98051.63;5006375;28;20112;-60
2022/05/19 04:56:23;;;;;;;5.18;1.50;;;;;;;9.15;75.80;98024.34;4988663;28;20533;-61
2022/05/19 04:58:50;;;;;;;4.65;1.60;;;;;;;9.67;73.67;98104.94;5005062;28;20500;-61
2022/05/19 05:01:17;;;;;;;2.38;1.48;;;;;;;9.83;74.60;98094.03;5006040;28;20386;-61
2022/05/19 05:03:44;;;;;;;3.42;1.58;;;;;;;9.87;75.42;98101.31;4988200;28;20054;-61
2022/05/19 05:06:11;;;;;;;4.65;1.92;;;;;;;10.14;73.56;98116.56;5005608;28;20513;-60
2022/05/19 05:08:38;;;;;;;4.07;1.58;;;;;;;9.77;72.64;98101.72;5005997;28;20050;-61
2022/05/19 05:11:04;;;;;;;3.50;1.90;;;;;;;9.89;74.66;98065.81;4988238;28;20065;-59
2022/05/19 05:13:31;;;;;;;4.55;1.88;;;;;;;10.35;75.41;98109.78;5004204;28;20437;-61
2022/05/19 05:15:58;;;;;;;3.47;1.98;;;;;;;10.51;74.66;98105.22;5005748;28;20046;-60
2022/05/19 05:18:25;;;;;;;7.13;2.17;;;;;;;10.73;73.21;98112.31;5006205;28;20094;-61
2022/05/19 05:20:52;;;;;;;3.05;1.90;;;;;;;10.53;71.36;98046.69;4988420;28;20050;-61
2022/05/19 05:23:19;;;;;;;3.15;1.58;;;;;;;11.02;71.17;98102.97;5005604;28;20115;-60
2022/05/19 05:25:45;;;;;;;4.03;1.80;;;;;;;11.18;68.97;98109.38;5006038;28;20061;-61
2022/05/19 05:28:12;;;;;;;5.32;1.50;;;;;;;10.86;69.09;98032.75;5004777;28;20058;-61
2022/05/19 05:30:39;;;;;;;1.55;1.20;;;;;;;11.33;68.26;98073.44;5003864;28;20050;-61
2022/05/19 05:33:08;;;;;;;2.08;1.35;;;;;;;11.15;67.74;98032.44;5003756;28;20053;-61
2022/05/19 05:35:35;;;;;;;5.38;1.23;;;;;;;11.69;67.57;98075.34;5005815;28;20882;-61
2022/05/19 05:38:02;;;;;;;6.57;1.00;;;;;;;11.89;67.45;98115.97;5005683;28;20065;-61
2022/05/19 05:40:29;;;;;;;6.10;2.22;;;;;;;11.85;67.87;98096.44;5005223;28;20062;-61
2022/05/19 05:42:56;;;;;;;3.97;1.73;;;;;;;12.17;67.55;98100.13;5005172;28;20054;-61
2022/05/19 05:45:23;;;;;;;3.15;1.70;;;;;;;12.14;66.62;98067.47;5010097;28;20061;-60
2022/05/19 05:47:49;;;;;;;3.15;1.10;;;;;;;12.54;63.50;98093.19;5005410;28;20055;-57
2022/05/19 05:50:16;;;;;;;1.33;1.00;;;;;;;12.54;60.91;98076.50;5003941;28;20057;-57
2022/05/19 05:52:43;;;;;;;2.42;1.27;;;;;;;12.86;62.54;98107.91;5003362;28;20053;-61
2022/05/19 05:55:10;;;;;;;3.53;1.40;;;;;;;12.73;67.71;98106.38;4994496;28;20058;-58
2022/05/19 05:57:37;;;;;;;2.58;1.27;;;;;;;12.66;65.92;98040.25;5003811;28;20428;-61
2022/05/19 06:00:07;;;;;;;1.73;1.00;;;;;;;12.45;61.63;98039.75;5006857;28;20409;-59
2022/05/19 06:02:34;;;;;;;2.58;1.23;;;;;;;13.14;61.44;98101.09;4985283;28;20177;-59
2022/05/19 06:05:08;;;;;;;3.88;1.38;;;;;;;13.19;59.37;98106.38;5000625;28;20419;-55
2022/05/19 06:07:35;;;;;;;3.10;1.13;;;;;;;13.36;60.01;98119.09;5002909;28;20050;-61
2022/05/19 06:10:02;;;;;;;2.08;1.50;;;;;;;13.60;60.03;98108.53;5004139;28;20396;-56
2022/05/19 06:12:29;;;;;;;2.95;1.13;;;;;;;13.91;56.79;98115.16;5002668;28;20046;-55
2022/05/19 06:14:56;;;;;;;4.70;1.23;;;;;;;14.14;56.44;98116.03;5003937;28;20156;-55
2022/05/19 06:17:24;;;;;;;2.50;1.20;;;;;;;14.38;55.73;98115.75;5004167;28;20046;-60
2022/05/19 06:19:51;;;;;;;23.50;21.77;;;;;;;14.61;55.35;98108.22;5003477;28;20046;-59
2022/05/19 06:22:21;;;;;;;4.80;2.13;;;;;;;14.86;53.33;98109.44;5002944;28;20073;-58
2022/05/19 06:24:49;;;;;;;3.30;1.40;;;;;;;15.00;53.76;98115.31;5003101;28;20428;-56
2022/05/19 06:27:16;;;;;;;2.45;1.30;;;;;;;15.24;51.86;98112.09;5002434;28;20058;-60
2022/05/19 06:29:43;;;;;;;2.13;1.02;;;;;;;15.29;51.90;98117.34;5002843;28;20081;-61
2022/05/19 06:32:10;;;;;;;4.93;1.38;;;;;;;15.46;53.24;98116.84;5002839;28;20061;-55
2022/05/19 06:34:37;;;;;;;2.13;1.00;;;;;;;15.56;52.07;98093.88;5003243;28;20053;-57
2022/05/19 06:37:04;;;;;;;1.65;1.08;;;;;;;15.22;52.14;98016.75;5003042;28;20056;-61
2022/05/19 06:39:30;;;;;;;4.30;1.33;;;;;;;15.29;49.54;98008.47;5001115;28;20837;-56
2022/05/19 06:42:03;;;;;;;4.45;3.00;;;;;;;15.81;49.45;98102.56;4999151;28;20429;-55
2022/05/19 06:44:36;;;;;;;2.15;1.75;;;;;;;15.76;50.03;98103.72;5007461;28;20058;-61
2022/05/19 06:47:09;;;;;;;;;;;;;;;16.04;51.10;98098.53;5003610;28;20065;-60
2022/05/19 06:49:36;;;;;;;4.30;1.30;;;;;;;16.29;48.47;98101.59;5003045;28;20319;-57
2022/05/19 06:52:04;;;;;;;9.20;3.55;;;;;;;15.93;47.41;98040.88;5002718;28;20053;-61
2022/05/19 06:54:30;;;;;;;11.20;4.07;;;;;;;16.71;47.98;98087.31;4982861;28;20050;-60
2022/05/19 06:56:57;;;;;;;6.03;2.47;;;;;;;16.83;46.45;98061.81;5000261;28;20052;-54
2022/05/19 06:59:24;;;;;;;2.13;1.63;;;;;;;16.99;45.49;98098.75;5002745;28;20045;-55
2022/05/19 07:01:50;;;;;;;4.32;1.80;;;;;;;16.92;44.88;98084.69;5002380;28;20049;-61
2022/05/19 07:04:17;;;;;;;3.38;1.35;;;;;;;16.91;46.14;98055.09;4996970;28;20053;-62
2022/05/19 07:06:44;;;;;;;4.53;1.65;;;;;;;17.19;44.47;98086.94;5000712;28;20056;-59
2022/05/19 07:09:11;;;;;;;6.18;1.60;;;;;;;17.48;44.16;98085.97;5007405;28;20062;-54
2022/05/19 07:11:38;;;;;;;5.72;1.55;;;;;;;17.42;43.53;98061.50;5003430;28;20072;-58
2022/05/19 07:14:06;;;;;;;4.13;1.67;;;;;;;17.09;45.00;98086.81;5003308;28;20053;-58
2022/05/19 07:16:33;;;;;;;2.80;1.60;;;;;;;16.86;46.08;98083.44;5000840;28;20057;-58
2022/05/19 07:21:47;;;;;;;6.22;1.55;;;;;;;17.39;44.29;98067.84;5011060;28;20405;-59
2022/05/19 07:24:16;;;;;;;2.88;1.35;;;;;;;17.07;44.47;98033.25;5002075;28;20054;-61
2022/05/19 07:26:45;;;;;;;2.08;1.52;;;;;;;17.70;45.29;98095.31;5002176;28;20448;-54
2022/05/19 07:29:11;;;;;;;4.00;1.50;;;;;;;17.52;43.40;98038.34;5001146;28;20120;-61
2022/05/19 07:31:39;;;;;;;3.30;1.40;;;;;;;17.91;42.50;98092.63;4999821;28;20045;-62
2022/05/19 07:34:07;;;;;;;2.50;1.90;;;;;;;18.04;43.02;98091.09;5005526;28;20539;-56
2022/05/19 07:36:34;;;;;;;12.80;6.35;;;;;;;18.15;42.71;98083.53;5001781;28;20050;-57
2022/05/19 07:39:01;;;;;;;4.32;1.73;;;;;;;18.32;42.70;98082.78;4993172;28;20054;-57
2022/05/19 07:41:30;;;;;;;4.30;1.83;;;;;;;18.42;40.50;98076.44;4993654;28;20073;-58
2022/05/19 07:43:57;;;;;;;3.33;1.70;;;;;;;18.20;41.51;98074.72;5005637;28;20053;-59
2022/05/19 07:46:25;;;;;;;4.75;1.52;;;;;;;18.10;39.09;98081.09;5005893;28;20140;-60
2022/05/19 07:48:55;;;;;;;8.73;1.63;;;;;;;18.29;39.12;98075.16;4995160;28;20050;-57
2022/05/19 07:51:28;;;;;;;2.67;1.42;;;;;;;18.16;40.66;98082.34;5010900;28;20057;-57
2022/05/19 07:53:55;;;;;;;3.20;1.60;;;;;;;18.17;38.60;98071.91;4989016;28;20058;-58
2022/05/19 07:56:22;;;;;;;2.38;1.48;;;;;;;18.38;38.33;98067.22;5001773;28;20062;-63
2022/05/19 07:58:51;;;;;;;5.55;2.03;;;;;;;18.09;39.18;98073.88;5002424;28;20042;-60
2022/05/19 08:01:18;;;;;;;2.65;1.80;;;;;;;18.01;38.95;98044.22;4999089;28;20137;-57
2022/05/19 08:03:45;;;;;;;5.97;1.80;;;;;;;18.58;39.05;98070.44;5001535;28;20097;-60
2022/05/19 08:06:12;;;;;;;2.17;1.30;;;;;;;17.54;39.26;98069.59;5001408;28;20102;-60
2022/05/19 08:08:39;;;;;;;2.03;1.48;;;;;;;17.51;39.80;98082.41;4991033;28;20054;-60
2022/05/19 08:11:07;;;;;;;7.15;2.05;;;;;;;17.91;40.29;98073.00;5001539;28;20133;-64
2022/05/19 08:16:19;;;;;;;5.88;1.67;;;;;;;17.87;40.40;98077.78;5002506;28;20455;-60
2022/05/19 08:18:46;;;;;;;10.55;4.20;;;;;;;17.81;41.57;98068.94;5001790;28;20050;-56
2022/05/19 08:21:13;;;;;;;4.32;2.47;;;;;;;17.84;39.64;98070.97;5003435;28;20049;-59
2022/05/19 08:23:43;;;;;;;4.05;1.30;;;;;;;18.07;38.00;98077.09;5005863;28;20057;-58
2022/05/19 08:26:11;;;;;;;2.80;1.65;;;;;;;18.45;39.16;98064.41;5005693;28;20468;-54
2022/05/19 08:28:40;;;;;;;1.88;1.13;;;;;;;18.21;37.04;98072.75;5004248;28;20048;-62
2022/05/19 08:31:13;;;;;;;2.08;1.60;;;;;;;17.51;38.29;98014.34;4995945;28;20053;-60
2022/05/19 08:33:42;;;;;;;3.60;1.73;;;;;;;18.23;37.41;98107.59;4997973;28;20042;-56
2022/05/19 09:07:56;;;;;;;2.80;1.60;;;;;;;18.41;35.23;98069.22;4988088;28;20445;-62
2022/05/19 09:09:37;;;;;;;5.22;2.28;;;;;;;18.83;34.64;98080.53;5005197;28;20049;-56
2022/05/19 09:12:09;;;;;;;5.63;2.33;;;;;;;18.05;35.53;97950.47;5003465;28;20509;-56
2022/05/19 09:14:36;;;;;;;2.40;1.60;;;;;;;18.85;34.71;98061.28;4987506;28;20053;-57
2022/05/19 09:17:07;;;;;;;1.95;1.35;;;;;;;18.73;34.28;98058.84;5005632;28;20080;-55
2022/05/19 09:19:43;;;;;;;4.68;1.60;;;;;;;19.07;34.07;98051.66;5004029;28;20504;-54
2022/05/19 09:22:16;;;;;;;3.53;1.27;;;;;;;18.94;34.50;98058.88;5004843;28;20053;-56
2022/05/19 09:24:46;;;;;;;1.98;1.52;;;;;;;19.10;34.38;98039.63;5005800;28;20045;-54
2022/05/19 09:27:13;;;;;;;1.35;1.25;;;;;;;18.49;33.38;98014.72;4985463;28;20050;-55
2022/05/19 09:29:41;;;;;;;1.52;1.42;;;;;;;18.66;33.85;98042.00;4986064;28;20112;-56
2022/05/19 09:32:18;;;;;;;2.90;1.70;;;;;;;19.22;34.15;98042.00;4967624;28;20054;-55
2022/05/19 09:34:52;;;;;;;2.40;1.50;;;;;;;19.47;33.38;98031.56;4985858;28;20433;-54
2022/05/19 09:37:43;;;;;;;3.97;1.40;;;;;;;19.76;33.86;98031.50;4985372;28;20505;-56
2022/05/19 09:40:10;;;;;;;2.45;1.92;;;;;;;19.52;33.26;98028.34;4999004;28;20649;-64
2022/05/19 09:43:04;;;;;;;2.28;1.63;;;;;;;19.15;34.00;97985.03;5002972;28;20461;-61
2022/05/19 09:45:55;;;;;;;1.38;1.27;;;;;;;19.33;32.70;97997.09;4980644;28;20050;-65
2022/05/19 09:48:30;;;;;;;3.78;2.00;;;;;;;19.51;33.10;98025.94;5003479;28;20058;-61
2022/05/19 09:51:07;;;;;;;3.53;2.33;;;;;;;19.81;32.42;98019.81;5002959;28;20255;-56
2022/05/19 09:53:47;;;;;;;7.32;3.53;;;;;;;19.66;31.76;98016.28;4985225;28;20054;-60
2022/05/19 09:56:17;;;;;;;1.50;1.30;;;;;;;19.52;33.19;98000.22;5002549;28;20507;-56
2022/05/19 09:58:48;;;;;;;1.90;1.65;;;;;;;19.11;33.58;97956.94;5003450;28;20076;-58
2022/05/19 10:01:28;;;;;;;5.05;1.40;;;;;;;17.97;32.58;97678.94;5003136;28;20053;-64
2022/05/19 10:04:01;;;;;;;3.40;2.22;;;;;;;20.35;31.31;97994.69;5002049;28;20058;-57
2022/05/19 10:06:57;;;;;;;2.58;1.40;;;;;;;19.94;31.47;97998.47;5001155;28;20280;-58
2022/05/19 10:09:31;;;;;;;3.33;1.65;;;;;;;20.11;32.00;98014.47;5003208;28;20603;-61
2022/05/19 10:12:10;;;;;;;3.00;1.35;;;;;;;20.02;31.25;97995.22;5003255;28;20068;-60
2022/05/19 10:14:40;;;;;;;2.42;1.55;;;;;;;19.84;31.79;97993.72;5002868;28;20058;-55
2022/05/19 10:17:55;;;;;;;1.40;1.25;;;;;;;20.24;31.71;97987.50;4984691;28;20046;-55
2022/05/19 10:20:29;;;;;;;3.13;1.85;;;;;;;20.82;32.30;97977.03;4985097;28;20539;-57
2022/05/19 10:23:44;;;;;;;2.72;1.42;;;;;;;20.60;30.72;97980.41;4987611;28;20045;-57
2022/05/19 10:26:32;;;;;;;2.05;1.15;;;;;;;20.45;31.35;97962.03;5000975;28;20095;-60
2022/05/19 10:32:58;;;;;;;2.22;1.65;;;;;;;20.75;31.30;97987.56;4997672;28;20049;-54
2022/05/19 10:36:02;;;;;;;9.18;4.03;;;;;;;20.60;31.16;97977.59;5004224;28;20054;-60
2022/05/19 10:38:37;;;;;;;;;;;;;;;20.87;31.98;97972.97;5004591;28;20054;-63
2022/05/19 10:41:20;;;;;;;2.15;1.40;;;;;;;19.85;31.52;97908.94;5004019;28;20033;-56
2022/05/19 10:44:12;;;;;;;1.70;1.47;;;;;;;19.43;31.11;97929.59;4985163;28;20437;-56
2022/05/19 10:46:54;;;;;;;2.42;1.55;;;;;;;19.82;32.58;97883.63;5003872;28;20076;-56
2022/05/19 10:49:36;;;;;;;1.88;1.50;;;;;;;20.77;31.35;97962.59;5003376;28;20113;-54
2022/05/19 10:52:15;;;;;;;5.25;1.77;;;;;;;20.55;31.60;97966.81;5003774;28;20064;-66
2022/05/19 10:55:12;;;;;;;2.55;1.58;;;;;;;20.58;33.07;97951.91;5003911;28;20542;-63
2022/05/19 10:58:04;;;;;;;1.90;1.80;;;;;;;21.14;31.17;97964.69;5003219;28;20491;-59
2022/05/19 11:00:49;;;;;;;2.00;1.80;;;;;;;20.78;30.10;97965.00;5003597;28;20058;-60
2022/05/19 11:03:28;;;;;;;2.20;1.63;;;;;;;20.57;31.38;97823.59;5002942;28;20093;-60
2022/05/19 11:06:20;;;;;;;1.67;1.58;;;;;;;21.32;30.53;97951.22;5001634;28;20145;-61
2022/05/19 11:09:21;;;;;;;2.00;1.63;;;;;;;21.14;29.93;97903.50;5003077;28;20065;-61
2022/05/19 11:12:00;;;;;;;1.60;1.50;;;;;;;21.51;31.39;97948.59;5001731;28;20662;-55
2022/05/19 11:14:52;;;;;;;2.80;1.58;;;;;;;21.56;30.93;97933.25;5002931;28;20152;-56
2022/05/19 11:17:32;;;;;;;1.88;1.77;;;;;;;22.05;30.10;97924.94;5002240;28;20064;-55
2022/05/19 11:20:28;;;;;;;1.73;1.60;;;;;;;21.86;30.45;97939.72;5003524;28;20085;-62
2022/05/19 11:23:34;;;;;;;1.73;1.48;;;;;;;21.11;30.26;97935.34;5003479;28;20054;-61
2022/05/19 11:26:23;;;;;;;3.88;1.35;;;;;;;20.85;30.32;97868.34;4977485;28;20050;-64
2022/05/19 11:29:06;;;;;;;1.65;1.55;;;;;;;21.13;29.96;97921.63;5003173;28;20042;-63
2022/05/19 11:31:48;;;;;;;3.35;1.83;;;;;;;19.89;31.74;97647.34;4949516;28;20539;-59
2022/05/19 11:34:37;;;;;;;1.75;1.60;;;;;;;21.02;30.28;97929.41;4997997;28;20050;-61
2022/05/19 11:37:30;;;;;;;1.70;1.40;;;;;;;20.91;30.34;97911.78;5001385;28;20140;-64
2022/05/19 11:40:30;;;;;;;2.20;2.00;;;;;;;20.48;30.82;97913.34;5001507;28;20065;-55
2022/05/19 11:43:02;;;;;;;2.25;1.50;;;;;;;21.09;30.01;97906.78;5001101;28;20312;-67
2022/05/19 11:45:35;;;;;;;1.65;1.50;;;;;;;21.45;30.77;97901.56;5001038;28;20746;-56
2022/05/19 11:57:29;;;;;;;2.95;1.58;;;;;;;21.75;31.15;97888.28;5007170;28;20060;-58
2022/05/19 12:00:00;;;;;;;2.58;1.77;;;;;;;21.41;31.00;97804.91;5007393;28;20050;-60
2022/05/19 12:02:35;;;;;;;2.60;1.70;;;;;;;22.54;29.37;97888.75;5006657;28;20064;-58
2022/05/19 12:05:14;;;;;;;1.80;1.60;;;;;;;21.85;29.94;97830.91;5006718;28;20085;-58
2022/05/19 12:07:48;;;;;;;2.45;1.70;;;;;;;21.49;30.39;97858.00;5006278;28;20123;-59
2022/05/19 12:10:19;;;;;;;5.65;2.17;;;;;;;21.96;31.38;97879.53;5006729;28;20061;-63
2022/05/19 12:12:54;;;;;;;1.65;1.52;;;;;;;21.34;30.96;97872.69;5006584;28;20053;-58
2022/05/19 12:15:25;;;;;;;1.92;1.80;;;;;;;21.47;30.64;97877.34;5006683;28;20065;-65
2022/05/19 12:18:22;;;;;;;1.70;1.55;;;;;;;21.32;30.74;97873.13;5006718;28;20062;-64
2022/05/19 12:21:13;;;;;;;1.70;1.60;;;;;;;21.26;31.49;97883.22;5006364;28;20062;-58
2022/05/19 12:23:43;;;;;;;2.80;1.58;;;;;;;19.04;31.84;97543.31;5005921;28;20057;-65
2022/05/19 12:26:15;;;;;;;1.70;1.60;;;;;;;21.10;32.36;97882.22;5005957;28;20501;-64
2022/05/19 12:29:04;;;;;;;1.77;1.60;;;;;;;20.85;32.62;97879.63;4985274;28;20551;-54
2022/05/19 12:31:56;;;;;;;2.15;1.70;;;;;;;20.93;32.62;97881.13;4986360;28;20066;-55
2022/05/19 12:34:32;;;;;;;2.58;1.95;;;;;;;22.10;31.75;97879.31;5002340;28;20863;-56
2022/05/19 12:37:26;;;;;;;1.85;1.75;;;;;;;23.08;30.26;97794.09;5006218;28;20050;-59
2022/05/19 12:40:11;;;;;;;5.15;2.10;;;;;;;23.96;27.91;97860.91;5006329;28;20131;-60
2022/05/19 12:42:41;;;;;;;3.80;2.70;;;;;;;24.18;28.84;97825.22;5006440;28;20054;-57
2022/05/19 12:45:25;;;;;;;2.97;1.88;;;;;;;24.96;28.17;97852.41;5005674;28;20137;-63
2022/05/19 12:48:21;;;;;;;2.28;2.08;;;;;;;24.02;28.92;97847.84;5005736;28;20065;-63
2022/05/19 12:50:51;;;;;;;7.72;2.35;;;;;;;24.87;26.37;97745.31;5003347;28;20113;-56
2022/05/19 12:53:21;;;;;;;5.70;2.42;;;;;;;24.87;27.26;97810.50;4987688;28;20398;-64